createdAt,value
2023-02-19T00:01:10.627Z,1001.4
2023-02-19T00:02:26.914Z,1001.3
2023-02-19T00:03:43.211Z,1001.3
2023-02-19T00:04:59.505Z,1001.3
2023-02-19T00:06:15.797Z,1001.3
2023-02-19T00:07:32.088Z,1001.2
2023-02-19T00:08:48.386Z,1001.3
2023-02-19T00:10:03.689Z,1001.2
2023-02-19T00:11:19.998Z,1001.3
2023-02-19T00:12:36.285Z,1001.2
2023-02-19T00:13:52.574Z,1001.2
2023-02-19T00:15:08.872Z,1001.3
2023-02-19T00:16:25.155Z,1001.2
2023-02-19T00:17:41.449Z,1001.2
2023-02-19T00:18:57.754Z,1001.2
2023-02-19T00:20:14.041Z,1001.2
2023-02-19T00:21:30.326Z,1001.2
2023-02-19T00:22:46.621Z,1001.2
2023-02-19T00:24:02.916Z,1001.2
2023-02-19T00:25:19.219Z,1001.1
2023-02-19T00:26:34.520Z,1001.2
2023-02-19T00:27:50.809Z,1001.1
2023-02-19T00:29:07.108Z,1001.1
2023-02-19T00:30:23.400Z,1001.1
2023-02-19T00:31:39.690Z,1001.1
2023-02-19T00:32:55.978Z,1001.1
2023-02-19T00:34:12.286Z,1001.1
2023-02-19T00:35:28.579Z,1001.1
2023-02-19T00:36:44.868Z,1001.1
2023-02-19T00:38:01.149Z,1001.1
2023-02-19T00:39:17.455Z,1001
2023-02-19T00:40:33.747Z,1001
2023-02-19T00:41:50.032Z,1001
2023-02-19T00:43:05.348Z,1001
2023-02-19T00:44:21.637Z,1000.9
2023-02-19T00:45:37.935Z,1001
2023-02-19T00:46:54.230Z,1000.9
2023-02-19T00:48:10.515Z,1000.9
2023-02-19T00:49:26.818Z,1000.9
2023-02-19T00:50:43.112Z,1000.9
2023-02-19T00:51:59.402Z,1000.9
2023-02-19T00:53:15.679Z,1000.8
2023-02-19T00:54:31.986Z,1000.8
2023-02-19T00:55:48.264Z,1000.8
2023-02-19T00:57:04.577Z,1000.8
2023-02-19T00:58:20.867Z,1000.8
2023-02-19T00:59:36.180Z,1000.8
2023-02-19T01:00:52.466Z,1000.7
2023-02-19T01:02:08.753Z,1000.8
2023-02-19T01:03:25.046Z,1000.7
2023-02-19T01:04:41.346Z,1000.8
2023-02-19T01:05:57.630Z,1000.8
2023-02-19T01:07:13.920Z,1000.8
2023-02-19T01:08:30.224Z,1000.8
2023-02-19T01:09:46.514Z,1000.8
2023-02-19T01:11:02.804Z,1000.8
2023-02-19T01:12:19.107Z,1000.8
2023-02-19T01:13:35.402Z,1000.8
2023-02-19T01:14:51.692Z,1000.8
2023-02-19T01:16:06.995Z,1000.8
2023-02-19T01:17:23.288Z,1000.7
2023-02-19T01:18:39.585Z,1000.7
2023-02-19T01:19:55.877Z,1000.7
2023-02-19T01:21:12.157Z,1000.8
2023-02-19T01:22:28.456Z,1000.8
2023-02-19T01:23:44.742Z,1000.8
2023-02-19T01:25:01.039Z,1000.8
2023-02-19T01:26:17.336Z,1000.8
2023-02-19T01:27:33.641Z,1000.8
2023-02-19T01:28:49.929Z,1000.7
2023-02-19T01:30:06.214Z,1000.7
2023-02-19T01:31:22.520Z,1000.8
2023-02-19T01:32:37.831Z,1000.7
2023-02-19T01:33:54.115Z,1000.7
2023-02-19T01:35:10.408Z,1000.6
2023-02-19T01:36:26.690Z,1000.6
2023-02-19T01:37:43.000Z,1000.6
2023-02-19T01:38:59.291Z,1000.6
2023-02-19T01:40:15.579Z,1000.5
2023-02-19T01:41:31.860Z,1000.4
2023-02-19T01:42:48.166Z,1000.4
2023-02-19T01:44:04.465Z,1000.4
2023-02-19T01:45:20.751Z,1000.4
2023-02-19T01:46:37.044Z,1000.4
2023-02-19T01:47:53.334Z,1000.3
2023-02-19T01:49:08.634Z,1000.3
2023-02-19T01:50:24.934Z,1000.3
2023-02-19T01:51:41.223Z,1000.2
2023-02-19T01:52:57.520Z,1000.2
2023-02-19T01:54:13.826Z,1000.2
2023-02-19T01:55:30.108Z,1000.2
2023-02-19T01:56:46.393Z,1000.2
2023-02-19T01:58:02.704Z,1000.2
2023-02-19T01:59:18.997Z,1000.2
2023-02-19T02:00:35.279Z,1000.1
2023-02-19T02:01:51.540Z,1000.1
2023-02-19T02:03:07.842Z,1000
2023-02-19T02:04:24.135Z,1000.1
2023-02-19T02:05:39.444Z,1000
2023-02-19T02:06:55.742Z,1000
2023-02-19T02:08:12.029Z,1000
2023-02-19T02:09:28.328Z,1000
2023-02-19T02:10:44.616Z,999.9
2023-02-19T02:12:00.912Z,999.9
2023-02-19T02:13:17.187Z,999.9
2023-02-19T02:14:33.491Z,999.8
2023-02-19T02:15:49.776Z,999.8
2023-02-19T02:17:06.068Z,999.8
2023-02-19T02:18:22.373Z,999.8
2023-02-19T02:19:38.655Z,999.8
2023-02-19T02:20:54.952Z,999.8
2023-02-19T02:22:10.269Z,999.7
2023-02-19T02:23:26.567Z,999.5
2023-02-19T02:24:42.859Z,999.5
2023-02-19T02:25:59.151Z,999.5
2023-02-19T02:27:15.433Z,999.4
2023-02-19T02:28:31.726Z,999.5
2023-02-19T02:29:48.016Z,999.5
2023-02-19T02:31:04.308Z,999.4
2023-02-19T02:32:20.617Z,999.4
2023-02-19T02:33:36.897Z,999.4
2023-02-19T02:34:53.190Z,999.4
2023-02-19T02:36:09.483Z,999.3
2023-02-19T02:37:25.788Z,999.3
2023-02-19T02:38:41.096Z,999.3
2023-02-19T02:39:57.390Z,999.3
2023-02-19T02:41:13.682Z,999.3
2023-02-19T02:42:29.965Z,999.3
2023-02-19T02:43:46.268Z,999.2
2023-02-19T02:45:02.561Z,999.2
2023-02-19T02:46:18.840Z,999.1
2023-02-19T02:47:35.132Z,999.2
2023-02-19T02:48:51.432Z,999.1
2023-02-19T02:50:07.738Z,999.1
2023-02-19T02:51:24.022Z,999.1
2023-02-19T02:52:40.318Z,999.1
2023-02-19T02:53:56.616Z,999.1
2023-02-19T02:55:11.924Z,999.1
2023-02-19T02:56:28.219Z,999.1
2023-02-19T02:57:44.505Z,999.1
2023-02-19T02:59:00.796Z,999.1
2023-02-19T03:00:17.079Z,999
2023-02-19T03:01:33.374Z,999
2023-02-19T03:02:49.673Z,999
2023-02-19T03:04:05.959Z,999
2023-02-19T03:05:22.263Z,998.9
2023-02-19T03:06:38.546Z,999
2023-02-19T03:07:54.836Z,998.9
2023-02-19T03:09:11.143Z,998.9
2023-02-19T03:10:27.432Z,998.9
2023-02-19T03:11:42.739Z,998.9
2023-02-19T03:12:59.024Z,998.9
2023-02-19T03:14:15.326Z,998.9
2023-02-19T03:15:31.618Z,998.9
2023-02-19T03:16:47.918Z,998.9
2023-02-19T03:18:04.201Z,998.9
2023-02-19T03:19:20.491Z,998.9
2023-02-19T03:20:36.796Z,998.8
2023-02-19T03:21:53.081Z,998.8
2023-02-19T03:23:09.381Z,998.7
2023-02-19T03:24:25.664Z,998.7
2023-02-19T03:25:41.960Z,998.7
2023-02-19T03:26:58.256Z,998.7
2023-02-19T03:28:13.567Z,998.7
2023-02-19T03:29:29.856Z,998.7
2023-02-19T03:30:46.153Z,998.7
2023-02-19T03:32:02.447Z,998.8
2023-02-19T03:33:18.729Z,998.7
2023-02-19T03:34:35.033Z,998.7
2023-02-19T03:35:51.320Z,998.7
2023-02-19T03:37:07.622Z,998.7
2023-02-19T03:38:23.908Z,998.7
2023-02-19T03:39:40.199Z,998.7
2023-02-19T03:40:56.503Z,998.7
2023-02-19T03:42:12.796Z,998.7
2023-02-19T03:43:29.090Z,998.7
2023-02-19T03:44:44.391Z,998.7
2023-02-19T03:46:00.689Z,998.7
2023-02-19T03:47:16.974Z,998.7
2023-02-19T03:48:33.268Z,998.6
2023-02-19T03:49:49.568Z,998.6
2023-02-19T03:51:05.852Z,998.5
2023-02-19T03:52:21.170Z,998.5
2023-02-19T03:53:37.457Z,998.5
2023-02-19T03:54:53.762Z,998.5
2023-02-19T03:56:10.043Z,998.5
2023-02-19T03:57:26.336Z,998.4
2023-02-19T03:58:42.635Z,998.4
2023-02-19T03:59:58.934Z,998.4
2023-02-19T04:01:15.226Z,998.5
2023-02-19T04:02:31.521Z,998.4
2023-02-19T04:03:47.819Z,998.5
2023-02-19T04:05:04.107Z,998.4
2023-02-19T04:06:20.401Z,998.4
2023-02-19T04:07:36.683Z,998.4
2023-02-19T04:08:51.996Z,998.4
2023-02-19T04:10:08.281Z,998.4
2023-02-19T04:11:24.577Z,998.4
2023-02-19T04:12:40.868Z,998.3
2023-02-19T04:13:57.177Z,998.4
2023-02-19T04:15:13.461Z,998.4
2023-02-19T04:16:29.751Z,998.4
2023-02-19T04:17:46.042Z,998.4
2023-02-19T04:19:02.342Z,998.4
2023-02-19T04:20:18.632Z,998.4
2023-02-19T04:21:34.918Z,998.4
2023-02-19T04:22:51.219Z,998.4
2023-02-19T04:24:07.516Z,998.4
2023-02-19T04:25:22.824Z,998.4
2023-02-19T04:26:39.114Z,998.4
2023-02-19T04:27:55.414Z,998.4
2023-02-19T04:29:11.703Z,998.4
2023-02-19T04:30:27.998Z,998.4
2023-02-19T04:31:44.297Z,998.4
2023-02-19T04:33:00.571Z,998.5
2023-02-19T04:34:16.881Z,998.6
2023-02-19T04:35:33.162Z,998.6
2023-02-19T04:36:49.465Z,998.6
2023-02-19T04:38:05.747Z,998.5
2023-02-19T04:39:22.051Z,998.6
2023-02-19T04:40:38.342Z,998.6
2023-02-19T04:41:53.650Z,998.6
2023-02-19T04:43:09.943Z,998.6
2023-02-19T04:44:26.241Z,998.7
2023-02-19T04:45:42.520Z,998.7
2023-02-19T04:46:58.830Z,998.8
2023-02-19T04:48:15.116Z,998.8
2023-02-19T04:49:31.411Z,998.9
2023-02-19T04:50:47.703Z,998.9
2023-02-19T04:52:03.995Z,998.9
2023-02-19T04:53:20.278Z,998.9
2023-02-19T04:54:36.588Z,998.9
2023-02-19T04:55:52.881Z,998.9
2023-02-19T04:57:09.165Z,999
2023-02-19T04:58:24.479Z,999
2023-02-19T04:59:40.778Z,999
2023-02-19T05:00:57.060Z,999
2023-02-19T05:02:13.348Z,998.9
2023-02-19T05:03:29.650Z,998.9
2023-02-19T05:04:45.943Z,998.9
2023-02-19T05:06:02.225Z,998.9
2023-02-19T05:07:18.528Z,998.9
2023-02-19T05:08:34.819Z,998.8
2023-02-19T05:09:51.114Z,998.9
2023-02-19T05:11:07.407Z,998.8
2023-02-19T05:12:23.699Z,998.9
2023-02-19T05:13:39.982Z,998.9
2023-02-19T05:14:55.312Z,998.9
2023-02-19T05:16:11.595Z,998.9
2023-02-19T05:17:27.891Z,998.9
2023-02-19T05:18:44.173Z,998.8
2023-02-19T05:20:00.481Z,998.8
2023-02-19T05:21:16.766Z,998.8
2023-02-19T05:22:33.054Z,998.8
2023-02-19T05:23:49.361Z,998.9
2023-02-19T05:25:05.655Z,998.9
2023-02-19T05:26:21.936Z,998.8
2023-02-19T05:27:38.235Z,998.9
2023-02-19T05:28:54.533Z,998.9
2023-02-19T05:30:10.820Z,998.9
2023-02-19T05:31:26.119Z,998.9
2023-02-19T05:32:42.426Z,998.9
2023-02-19T05:33:58.716Z,998.9
2023-02-19T05:35:15.005Z,998.9
2023-02-19T05:36:31.310Z,998.9
2023-02-19T05:37:47.591Z,998.9
2023-02-19T05:39:03.889Z,998.9
2023-02-19T05:40:20.190Z,998.9
2023-02-19T05:41:36.469Z,998.9
2023-02-19T05:42:52.762Z,998.9
2023-02-19T05:44:09.069Z,998.9
2023-02-19T05:45:25.349Z,998.9
2023-02-19T05:46:41.653Z,998.9
2023-02-19T05:47:56.945Z,998.9
2023-02-19T05:49:13.239Z,998.9
2023-02-19T05:50:29.544Z,999
2023-02-19T05:51:45.838Z,999
2023-02-19T05:53:02.135Z,999
2023-02-19T05:54:18.417Z,999.1
2023-02-19T05:55:34.670Z,999.1
2023-02-19T05:56:50.906Z,999.1
2023-02-19T05:58:07.187Z,999
2023-02-19T05:59:23.436Z,999.1
2023-02-19T06:00:39.692Z,999.1
2023-02-19T06:01:55.928Z,999.1
2023-02-19T06:03:12.165Z,999.1
2023-02-19T06:04:27.412Z,999.1
2023-02-19T06:05:43.657Z,999.1
2023-02-19T06:06:59.899Z,999.1
2023-02-19T06:08:16.127Z,999.1
2023-02-19T06:09:32.368Z,999.1
2023-02-19T06:10:48.613Z,999.2
2023-02-19T06:12:04.857Z,999.2
2023-02-19T06:13:21.092Z,999.2
2023-02-19T06:14:37.324Z,999.2
2023-02-19T06:15:53.565Z,999.3
2023-02-19T06:17:09.799Z,999.3
2023-02-19T06:18:26.044Z,999.3
2023-02-19T06:19:42.279Z,999.2
2023-02-19T06:20:57.549Z,999.3
2023-02-19T06:22:13.775Z,999.3
2023-02-19T06:23:30.016Z,999.3
2023-02-19T06:24:46.250Z,999.3
2023-02-19T06:26:02.507Z,999.4
2023-02-19T06:27:18.744Z,999.4
2023-02-19T06:28:34.977Z,999.4
2023-02-19T06:29:51.211Z,999.4
2023-02-19T06:31:07.457Z,999.4
2023-02-19T06:32:23.700Z,999.4
2023-02-19T06:33:39.933Z,999.5
2023-02-19T06:34:56.164Z,999.4
2023-02-19T06:36:12.409Z,999.4
2023-02-19T06:37:27.656Z,999.5
2023-02-19T06:38:43.914Z,999.5
2023-02-19T06:40:00.153Z,999.5
2023-02-19T06:41:16.377Z,999.5
2023-02-19T06:42:32.632Z,999.6
2023-02-19T06:43:48.857Z,999.6
2023-02-19T06:45:05.109Z,999.5
2023-02-19T06:46:21.343Z,999.5
2023-02-19T06:47:37.575Z,999.6
2023-02-19T06:48:53.819Z,999.6
2023-02-19T06:50:10.061Z,999.6
2023-02-19T06:51:26.289Z,999.7
2023-02-19T06:52:42.527Z,999.7
2023-02-19T06:53:57.798Z,999.7
2023-02-19T06:55:14.033Z,999.8
2023-02-19T06:56:30.267Z,999.8
2023-02-19T06:57:46.502Z,999.9
2023-02-19T06:59:02.754Z,1000
2023-02-19T07:00:18.989Z,1000
2023-02-19T07:01:35.226Z,1000.1
2023-02-19T07:02:51.473Z,1000.2
2023-02-19T07:04:07.709Z,1000.2
2023-02-19T07:05:23.939Z,1000.3
2023-02-19T07:06:40.184Z,1000.3
2023-02-19T07:07:56.416Z,1000.4
2023-02-19T07:09:12.653Z,1000.4
2023-02-19T07:10:27.913Z,1000.5
2023-02-19T07:11:44.151Z,1000.5
2023-02-19T07:13:00.396Z,1000.5
2023-02-19T07:14:16.643Z,1000.5
2023-02-19T07:15:32.868Z,1000.6
2023-02-19T07:16:49.120Z,1000.7
2023-02-19T07:18:05.355Z,1000.7
2023-02-19T07:19:21.593Z,1000.7
2023-02-19T07:20:37.830Z,1000.7
2023-02-19T07:21:54.071Z,1000.8
2023-02-19T07:23:10.300Z,1000.8
2023-02-19T07:24:26.552Z,1000.9
2023-02-19T07:25:42.794Z,1001
2023-02-19T07:26:58.029Z,1001
2023-02-19T07:28:14.273Z,1001
2023-02-19T07:29:30.509Z,1001.1
2023-02-19T07:30:46.750Z,1001.1
2023-02-19T07:32:02.992Z,1001.1
2023-02-19T07:33:19.242Z,1001.2
2023-02-19T07:34:35.470Z,1001.2
2023-02-19T07:35:51.715Z,1001.2
2023-02-19T07:37:07.958Z,1001.2
2023-02-19T07:38:24.199Z,1001.3
2023-02-19T07:39:40.423Z,1001.4
2023-02-19T07:40:56.679Z,1001.5
2023-02-19T07:42:12.904Z,1001.6
2023-02-19T07:43:28.175Z,1001.6
2023-02-19T07:44:44.401Z,1001.7
2023-02-19T07:46:00.654Z,1001.6
2023-02-19T07:47:16.891Z,1001.6
2023-02-19T07:48:33.132Z,1001.7
2023-02-19T07:49:49.360Z,1001.8
2023-02-19T07:51:05.606Z,1001.8
2023-02-19T07:52:21.845Z,1001.8
2023-02-19T07:53:38.090Z,1001.9
2023-02-19T07:54:54.320Z,1002
2023-02-19T07:56:10.554Z,1002.1
2023-02-19T07:57:26.805Z,1002.1
2023-02-19T07:58:43.026Z,1002.1
2023-02-19T07:59:58.293Z,1002.1
2023-02-19T08:01:14.522Z,1002.2
2023-02-19T08:02:30.766Z,1002.3
2023-02-19T08:03:47.000Z,1002.3
2023-02-19T08:05:03.256Z,1002.3
2023-02-19T08:06:19.492Z,1002.3
2023-02-19T08:07:34.751Z,1002.3
2023-02-19T08:08:50.994Z,1002.4
2023-02-19T08:10:07.230Z,1002.4
2023-02-19T08:11:23.459Z,1002.4
2023-02-19T08:12:39.706Z,1002.4
2023-02-19T08:13:55.949Z,1002.4
2023-02-19T08:15:12.191Z,1002.5
2023-02-19T08:16:28.417Z,1002.5
2023-02-19T08:17:44.662Z,1002.6
2023-02-19T08:19:00.894Z,1002.6
2023-02-19T08:20:17.151Z,1002.6
2023-02-19T08:21:33.377Z,1002.6
2023-02-19T08:22:49.619Z,1002.7
2023-02-19T08:24:04.885Z,1002.7
2023-02-19T08:25:21.120Z,1002.8
2023-02-19T08:26:37.363Z,1002.8
2023-02-19T08:27:53.603Z,1002.8
2023-02-19T08:29:09.832Z,1002.9
2023-02-19T08:30:26.070Z,1002.9
2023-02-19T08:31:42.324Z,1002.9
2023-02-19T08:32:58.550Z,1003
2023-02-19T08:34:14.788Z,1003.1
2023-02-19T08:35:31.034Z,1003
2023-02-19T08:36:47.279Z,1003.1
2023-02-19T08:38:03.512Z,1003.1
2023-02-19T08:40:35.998Z,1003.2
2023-02-19T08:41:51.239Z,1003.2
2023-02-19T08:43:07.488Z,1003.3
2023-02-19T08:44:23.716Z,1003.5
2023-02-19T08:45:39.974Z,1003.5
2023-02-19T08:46:56.196Z,1003.6
2023-02-19T08:48:12.440Z,1003.6
2023-02-19T08:49:28.000Z,1003.7
2023-02-19T08:50:44.912Z,1003.7
2023-02-19T08:52:01.159Z,1003.8
2023-02-19T08:53:17.402Z,1003.8
2023-02-19T08:54:33.651Z,1003.8
2023-02-19T08:55:49.879Z,1003.9
2023-02-19T08:57:06.116Z,1003.9
2023-02-19T08:58:21.380Z,1003.9
2023-02-19T08:59:37.619Z,1003.9
2023-02-19T09:00:53.845Z,1003.9
2023-02-19T09:02:10.099Z,1003.9
2023-02-19T09:03:26.337Z,1003.9
2023-02-19T09:04:42.574Z,1004
2023-02-19T09:05:58.810Z,1004.1
2023-02-19T09:07:15.047Z,1004.1
2023-02-19T09:08:31.300Z,1004.1
2023-02-19T09:09:47.536Z,1004.1
2023-02-19T09:11:03.759Z,1004.2
2023-02-19T09:12:20.000Z,1004.1
2023-02-19T09:13:36.244Z,1004.2
2023-02-19T09:14:51.495Z,1004.2
2023-02-19T09:16:07.738Z,1004.3
2023-02-19T09:17:23.983Z,1004.2
2023-02-19T09:18:40.220Z,1004.3
2023-02-19T09:19:56.466Z,1004.3
2023-02-19T09:21:12.701Z,1004.3
2023-02-19T09:22:28.941Z,1004.3
2023-02-19T09:23:45.168Z,1004.3
2023-02-19T09:25:01.418Z,1004.3
2023-02-19T09:26:17.656Z,1004.4
2023-02-19T09:27:33.892Z,1004.4
2023-02-19T09:28:50.144Z,1004.5
2023-02-19T09:30:06.390Z,1004.5
2023-02-19T09:31:21.642Z,1004.5
2023-02-19T09:32:37.864Z,1004.5
2023-02-19T09:33:54.106Z,1004.6
2023-02-19T09:35:10.346Z,1004.6
2023-02-19T09:36:26.588Z,1004.6
2023-02-19T09:37:42.837Z,1004.6
2023-02-19T09:38:59.068Z,1004.6
2023-02-19T09:40:15.319Z,1004.7
2023-02-19T09:41:31.544Z,1004.7
2023-02-19T09:42:47.787Z,1004.7
2023-02-19T09:44:04.030Z,1004.8
2023-02-19T09:45:20.275Z,1004.7
2023-02-19T09:46:36.499Z,1004.7
2023-02-19T09:47:51.771Z,1004.7
2023-02-19T09:49:08.008Z,1004.8
2023-02-19T09:50:24.253Z,1004.8
2023-02-19T09:51:40.482Z,1004.9
2023-02-19T09:52:56.720Z,1004.9
2023-02-19T09:54:12.956Z,1004.9
2023-02-19T09:55:29.193Z,1004.8
2023-02-19T09:56:45.450Z,1004.9
2023-02-19T09:58:01.688Z,1004.8
2023-02-19T09:59:17.911Z,1004.9
2023-02-19T10:00:34.158Z,1005
2023-02-19T10:01:50.394Z,1005
2023-02-19T10:03:06.626Z,1005
2023-02-19T10:04:21.901Z,1004.9
2023-02-19T10:05:38.130Z,1004.9
2023-02-19T10:06:54.371Z,1004.9
2023-02-19T10:08:10.613Z,1004.9
2023-02-19T10:09:26.856Z,1004.8
2023-02-19T10:10:43.082Z,1004.8
2023-02-19T10:11:59.337Z,1004.9
2023-02-19T10:13:15.566Z,1004.9
2023-02-19T10:14:31.811Z,1005
2023-02-19T10:15:48.039Z,1005
2023-02-19T10:17:04.289Z,1005.1
2023-02-19T10:18:20.524Z,1005.2
2023-02-19T10:19:36.765Z,1005.4
2023-02-19T10:20:52.022Z,1005.4
2023-02-19T10:22:08.267Z,1005.4
2023-02-19T10:23:24.487Z,1005.4
2023-02-19T10:24:40.740Z,1005.5
2023-02-19T10:25:56.971Z,1005.5
2023-02-19T10:27:13.209Z,1005.4
2023-02-19T10:28:29.445Z,1005.5
2023-02-19T10:29:45.688Z,1005.5
2023-02-19T10:31:01.923Z,1005.5
2023-02-19T10:32:18.181Z,1005.5
2023-02-19T10:33:34.400Z,1005.5
2023-02-19T10:34:50.652Z,1005.4
2023-02-19T10:36:06.883Z,1005.4
2023-02-19T10:37:22.138Z,1005.5
2023-02-19T10:38:38.376Z,1005.5
2023-02-19T10:39:54.613Z,1005.5
2023-02-19T10:41:10.854Z,1005.5
2023-02-19T10:42:27.103Z,1005.6
2023-02-19T10:43:43.347Z,1005.6
2023-02-19T10:44:59.583Z,1005.7
2023-02-19T10:46:15.807Z,1005.8
2023-02-19T10:47:32.064Z,1005.8
2023-02-19T10:48:48.303Z,1005.9
2023-02-19T10:50:04.531Z,1005.9
2023-02-19T10:51:20.772Z,1005.9
2023-02-19T10:52:37.022Z,1005.8
2023-02-19T10:53:52.280Z,1005.8
2023-02-19T10:55:08.512Z,1005.8
2023-02-19T10:56:24.744Z,1005.7
2023-02-19T10:57:40.992Z,1005.8
2023-02-19T10:58:57.223Z,1005.8
2023-02-19T11:00:13.459Z,1006
2023-02-19T11:01:29.698Z,1006
2023-02-19T11:02:45.935Z,1006.1
2023-02-19T11:04:02.175Z,1006
2023-02-19T11:05:18.424Z,1006.1
2023-02-19T11:06:34.669Z,1006.1
2023-02-19T11:07:50.896Z,1006.1
2023-02-19T11:09:07.137Z,1006.1
2023-02-19T11:10:22.398Z,1006.2
2023-02-19T11:11:38.627Z,1006.2
2023-02-19T11:12:54.863Z,1006.3
2023-02-19T11:14:11.120Z,1006.3
2023-02-19T11:15:27.353Z,1006.3
2023-02-19T11:16:43.586Z,1006.4
2023-02-19T11:17:59.831Z,1006.4
2023-02-19T11:19:16.078Z,1006.4
2023-02-19T11:20:32.303Z,1006.4
2023-02-19T11:21:48.554Z,1006.4
2023-02-19T11:23:04.789Z,1006.4
2023-02-19T11:24:21.027Z,1006.4
2023-02-19T11:25:37.272Z,1006.3
2023-02-19T11:26:52.517Z,1006.3
2023-02-19T11:28:08.762Z,1006.3
2023-02-19T11:29:24.991Z,1006.3
2023-02-19T11:30:41.243Z,1006.3
2023-02-19T11:31:57.472Z,1006.4
2023-02-19T11:33:13.714Z,1006.5
2023-02-19T11:34:29.952Z,1006.4
2023-02-19T11:35:46.198Z,1006.4
2023-02-19T11:37:02.438Z,1006.5
2023-02-19T11:38:18.665Z,1006.5
2023-02-19T11:39:34.909Z,1006.5
2023-02-19T11:40:51.160Z,1006.5
2023-02-19T11:42:07.380Z,1006.6
2023-02-19T11:43:22.646Z,1006.5
2023-02-19T11:44:38.885Z,1006.6
2023-02-19T11:45:55.123Z,1006.5
2023-02-19T11:47:11.363Z,1006.6
2023-02-19T11:48:27.610Z,1006.6
2023-02-19T11:49:43.846Z,1006.6
2023-02-19T11:51:00.086Z,1006.6
2023-02-19T11:52:16.328Z,1006.6
2023-02-19T11:53:32.568Z,1006.7
2023-02-19T11:54:48.791Z,1006.7
2023-02-19T11:56:05.040Z,1006.7
2023-02-19T11:57:21.270Z,1006.7
2023-02-19T11:58:37.519Z,1006.7
2023-02-19T11:59:52.766Z,1006.8
2023-02-19T12:01:09.012Z,1006.8
2023-02-19T12:02:25.242Z,1006.8
2023-02-19T12:03:41.479Z,1006.8
2023-02-19T12:04:57.731Z,1006.8
2023-02-19T12:06:13.958Z,1006.7
2023-02-19T12:07:30.199Z,1006.7
2023-02-19T12:08:46.448Z,1006.7
2023-02-19T12:10:02.680Z,1006.8
2023-02-19T12:11:18.919Z,1006.7
2023-02-19T12:12:35.157Z,1006.7
2023-02-19T12:13:51.402Z,1006.7
2023-02-19T12:15:07.644Z,1006.7
2023-02-19T12:16:22.890Z,1006.7
2023-02-19T12:17:39.141Z,1006.7
2023-02-19T12:18:55.381Z,1006.7
2023-02-19T12:20:11.620Z,1006.7
2023-02-19T12:21:27.849Z,1006.7
2023-02-19T12:22:43.109Z,1006.7
2023-02-19T12:23:59.353Z,1006.8
2023-02-19T12:25:15.596Z,1006.8
2023-02-19T12:26:31.824Z,1006.8
2023-02-19T12:27:48.063Z,1006.8
2023-02-19T12:29:04.312Z,1006.8
2023-02-19T12:30:20.552Z,1006.8
2023-02-19T12:31:36.790Z,1006.8
2023-02-19T12:32:53.024Z,1006.8
2023-02-19T12:34:09.254Z,1006.8
2023-02-19T12:35:25.498Z,1006.7
2023-02-19T12:36:41.745Z,1006.6
2023-02-19T12:37:57.983Z,1006.7
2023-02-19T12:39:13.232Z,1006.7
2023-02-19T12:40:29.475Z,1006.7
2023-02-19T12:41:45.719Z,1006.8
2023-02-19T12:43:01.964Z,1006.7
2023-02-19T12:44:18.189Z,1006.6
2023-02-19T12:45:34.438Z,1006.7
2023-02-19T12:46:50.662Z,1006.8
2023-02-19T12:48:06.926Z,1006.8
2023-02-19T12:49:23.156Z,1006.8
2023-02-19T12:50:39.399Z,1006.7
2023-02-19T12:51:55.635Z,1006.8
2023-02-19T12:53:11.865Z,1006.9
2023-02-19T12:54:28.113Z,1006.9
2023-02-19T12:55:43.372Z,1007
2023-02-19T12:56:59.626Z,1006.8
2023-02-19T12:58:15.865Z,1006.9
2023-02-19T12:59:32.104Z,1006.8
2023-02-19T13:00:48.357Z,1006.7
2023-02-19T13:02:04.588Z,1006.5
2023-02-19T13:03:20.824Z,1006.7
2023-02-19T13:04:37.077Z,1006.7
2023-02-19T13:05:53.306Z,1006.7
2023-02-19T13:07:09.544Z,1006.7
2023-02-19T13:08:25.792Z,1006.8
2023-02-19T13:09:42.026Z,1006.8
2023-02-19T13:10:58.272Z,1006.7
2023-02-19T13:12:13.522Z,1006.8
2023-02-19T13:13:29.773Z,1006.8
2023-02-19T13:14:45.995Z,1006.8
2023-02-19T13:16:02.251Z,1006.9
2023-02-19T13:17:18.477Z,1006.8
2023-02-19T13:18:34.721Z,1006.9
2023-02-19T13:19:50.948Z,1006.9
2023-02-19T13:21:07.197Z,1007
2023-02-19T13:22:23.437Z,1006.9
2023-02-19T13:23:39.670Z,1006.9
2023-02-19T13:24:55.904Z,1006.8
2023-02-19T13:26:12.158Z,1006.8
2023-02-19T13:27:28.379Z,1006.8
2023-02-19T13:28:43.649Z,1006.8
2023-02-19T13:29:59.875Z,1006.9
2023-02-19T13:31:16.119Z,1007
2023-02-19T13:32:32.364Z,1007
2023-02-19T13:33:48.604Z,1007
2023-02-19T13:35:04.833Z,1007.1
2023-02-19T13:36:21.072Z,1007.2
2023-02-19T13:37:37.320Z,1007.2
2023-02-19T13:38:53.556Z,1007.1
2023-02-19T13:40:09.809Z,1007.1
2023-02-19T13:41:26.041Z,1007
2023-02-19T13:42:42.275Z,1006.9
2023-02-19T13:43:58.515Z,1006.8
2023-02-19T13:45:13.773Z,1007
2023-02-19T13:46:30.003Z,1007.1
2023-02-19T13:47:46.257Z,1007
2023-02-19T13:49:02.491Z,1006.9
2023-02-19T13:50:18.733Z,1006.9
2023-02-19T13:51:34.962Z,1006.9
2023-02-19T13:52:51.198Z,1007
2023-02-19T13:54:07.446Z,1007
2023-02-19T13:55:23.692Z,1007
2023-02-19T13:56:39.913Z,1007
2023-02-19T13:57:56.154Z,1007
2023-02-19T13:59:12.392Z,1007
2023-02-19T14:00:28.631Z,1007
2023-02-19T14:01:43.896Z,1007
2023-02-19T14:03:00.141Z,1007.2
2023-02-19T14:04:16.379Z,1007.2
2023-02-19T14:05:32.609Z,1007.2
2023-02-19T14:06:48.843Z,1007.2
2023-02-19T14:08:05.085Z,1007.3
2023-02-19T14:09:21.318Z,1007.2
2023-02-19T14:10:37.560Z,1007.3
2023-02-19T14:11:53.811Z,1007.3
2023-02-19T14:13:10.031Z,1007.3
2023-02-19T14:14:26.279Z,1007.4
2023-02-19T14:15:42.511Z,1007.3
2023-02-19T14:16:58.752Z,1007.3
2023-02-19T14:18:14.013Z,1007.3
2023-02-19T14:19:30.240Z,1007.3
2023-02-19T14:20:46.489Z,1007.4
2023-02-19T14:22:02.737Z,1007.4
2023-02-19T14:23:18.987Z,1007.3
2023-02-19T14:24:35.221Z,1007.3
2023-02-19T14:25:51.462Z,1007.3
2023-02-19T14:27:07.702Z,1007.3
2023-02-19T14:28:23.928Z,1007.3
2023-02-19T14:29:40.171Z,1007.3
2023-02-19T14:30:56.403Z,1007.3
2023-02-19T14:32:12.642Z,1007.4
2023-02-19T14:33:28.879Z,1007.4
2023-02-19T14:34:44.147Z,1007.4
2023-02-19T14:36:00.386Z,1007.3
2023-02-19T14:37:16.610Z,1007.4
2023-02-19T14:38:32.851Z,1007.3
2023-02-19T14:39:49.087Z,1007.4
2023-02-19T14:41:05.334Z,1007.4
2023-02-19T14:42:21.563Z,1007.4
2023-02-19T14:43:37.812Z,1007.4
2023-02-19T14:44:54.054Z,1007.3
2023-02-19T14:46:10.283Z,1007.4
2023-02-19T14:47:26.518Z,1007.4
2023-02-19T14:48:42.756Z,1007.5
2023-02-19T14:49:59.015Z,1007.4
2023-02-19T14:51:14.266Z,1007.4
2023-02-19T14:52:30.488Z,1007.4
2023-02-19T14:53:46.732Z,1007.4
2023-02-19T14:55:02.985Z,1007.4
2023-02-19T14:56:19.211Z,1007.5
2023-02-19T14:58:51.675Z,1007.4
2023-02-19T15:00:07.923Z,1007.4
2023-02-19T15:01:24.150Z,1007.4
2023-02-19T15:02:40.400Z,1007.4
2023-02-19T15:03:56.627Z,1007.4
2023-02-19T15:05:12.862Z,1007.4
2023-02-19T15:06:29.101Z,1007.4
2023-02-19T15:07:44.368Z,1007.4
2023-02-19T15:09:00.602Z,1007.4
2023-02-19T15:10:16.844Z,1007.4
2023-02-19T15:11:33.076Z,1007.5
2023-02-19T15:12:49.327Z,1007.5
2023-02-19T15:14:05.560Z,1007.6
2023-02-19T15:15:21.789Z,1007.6
2023-02-19T15:16:38.037Z,1007.6
2023-02-19T15:17:54.277Z,1007.6
2023-02-19T15:19:10.515Z,1007.6
2023-02-19T15:20:26.761Z,1007.5
2023-02-19T15:21:42.984Z,1007.6
2023-02-19T15:22:59.239Z,1007.6
2023-02-19T15:24:14.494Z,1007.6
2023-02-19T15:25:30.726Z,1007.5
2023-02-19T15:26:46.000Z,1007.6
2023-02-19T15:28:03.202Z,1007.6
2023-02-19T15:29:19.431Z,1007.7
2023-02-19T15:30:35.686Z,1007.8
2023-02-19T15:31:51.915Z,1007.9
2023-02-19T15:33:08.159Z,1007.8
2023-02-19T15:34:24.404Z,1007.9
2023-02-19T15:35:40.627Z,1007.9
2023-02-19T15:36:56.880Z,1008
2023-02-19T15:38:13.119Z,1007.9
2023-02-19T15:39:29.370Z,1008
2023-02-19T15:40:44.611Z,1007.9
2023-02-19T15:42:00.862Z,1007.9
2023-02-19T15:43:17.085Z,1007.9
2023-02-19T15:44:33.329Z,1008
2023-02-19T15:45:49.574Z,1008
2023-02-19T15:47:05.814Z,1008
2023-02-19T15:48:22.041Z,1008
2023-02-19T15:49:38.297Z,1008.1
2023-02-19T15:50:54.523Z,1008.1
2023-02-19T15:52:10.772Z,1008.1
2023-02-19T15:53:26.995Z,1008
2023-02-19T15:54:43.246Z,1008.1
2023-02-19T15:55:59.485Z,1008.1
2023-02-19T15:57:14.730Z,1008.1
2023-02-19T15:58:30.976Z,1008
2023-02-19T15:59:47.208Z,1008
2023-02-19T16:01:03.453Z,1008.1
2023-02-19T16:02:19.686Z,1008.2
2023-02-19T16:03:35.931Z,1008.1
2023-02-19T16:04:52.180Z,1008.1
2023-02-19T16:06:08.408Z,1008.1
2023-02-19T16:07:24.652Z,1008.1